createdAt,value
2023-05-09T00:00:15.299Z,9.37
2023-05-09T00:02:46.195Z,9.70
2023-05-09T00:05:15.161Z,9.20
2023-05-09T00:07:43.937Z,8.23
2023-05-09T00:10:12.448Z,8.33
2023-05-09T00:12:41.743Z,7.83
2023-05-09T00:15:13.165Z,7.83
2023-05-09T00:17:41.953Z,9.30
2023-05-09T00:20:12.579Z,8.40
2023-05-09T00:22:42.113Z,8.10
2023-05-09T00:25:12.672Z,8.80
2023-05-09T00:27:44.101Z,7.90
2023-05-09T00:30:14.355Z,7.63
2023-05-09T00:32:45.648Z,7.33
2023-05-09T00:35:14.133Z,7.97
2023-05-09T00:37:42.715Z,8.17
2023-05-09T00:40:12.190Z,7.33
2023-05-09T00:42:40.836Z,7.60
2023-05-09T00:45:10.936Z,8.07
2023-05-09T00:47:40.886Z,7.57
2023-05-09T00:50:11.189Z,8.13
2023-05-09T00:52:40.507Z,8.00
2023-05-09T00:55:09.926Z,6.90
2023-05-09T00:57:38.340Z,7.57
2023-05-09T01:00:13.077Z,7.90
2023-05-09T01:02:44.797Z,6.63
2023-05-09T01:05:13.834Z,6.80
2023-05-09T01:07:52.107Z,6.97
2023-05-09T01:10:33.181Z,6.83
2023-05-09T01:13:07.212Z,6.63
2023-05-09T01:15:41.347Z,6.40
2023-05-09T01:18:18.789Z,6.77
2023-05-09T01:20:54.172Z,6.40
2023-05-09T01:24:02.134Z,6.50
2023-05-09T01:26:46.124Z,5.73
2023-05-09T01:29:34.810Z,5.23
2023-05-09T01:32:08.893Z,5.50
2023-05-09T01:34:40.046Z,5.47
2023-05-09T01:37:09.643Z,5.20
2023-05-09T01:39:42.461Z,5.37
2023-05-09T01:42:14.143Z,6.33
2023-05-09T01:44:47.026Z,5.87
2023-05-09T01:47:17.459Z,5.43
2023-05-09T01:49:47.229Z,6.00
2023-05-09T01:52:18.358Z,6.70
2023-05-09T01:54:47.821Z,6.83
2023-05-09T01:57:19.522Z,6.83
2023-05-09T01:59:50.956Z,7.03
2023-05-09T02:02:19.919Z,6.97
2023-05-09T02:04:49.636Z,7.17
2023-05-09T02:07:18.830Z,6.87
2023-05-09T02:09:48.787Z,7.07
2023-05-09T02:12:17.220Z,8.00
2023-05-09T02:14:45.708Z,7.80
2023-05-09T02:17:17.086Z,7.77
2023-05-09T02:19:45.629Z,7.57
2023-05-09T02:22:14.776Z,7.90
2023-05-09T02:24:44.980Z,8.30
2023-05-09T02:27:14.336Z,8.23
2023-05-09T02:29:46.648Z,7.40
2023-05-09T02:32:21.363Z,6.77
2023-05-09T02:34:52.466Z,7.23
2023-05-09T02:37:22.085Z,6.83
2023-05-09T02:39:50.411Z,7.20
2023-05-09T02:42:25.465Z,6.23
2023-05-09T02:44:53.945Z,6.20
2023-05-09T02:47:24.016Z,6.40
2023-05-09T02:49:52.521Z,5.80
2023-05-09T02:52:21.438Z,6.10
2023-05-09T02:54:49.834Z,6.00
2023-05-09T02:57:18.177Z,6.27
2023-05-09T02:59:46.503Z,6.33
2023-05-09T03:02:14.988Z,5.90
2023-05-09T03:04:44.841Z,6.17
2023-05-09T03:07:13.338Z,5.77
2023-05-09T03:09:41.653Z,6.10
2023-05-09T03:12:10.290Z,5.97
2023-05-09T03:14:41.632Z,5.60
2023-05-09T03:17:09.941Z,5.53
2023-05-09T03:19:38.351Z,5.10
2023-05-09T03:22:08.039Z,5.20
2023-05-09T03:24:36.971Z,5.30
2023-05-09T03:27:05.374Z,5.77
2023-05-09T03:29:33.742Z,5.30
2023-05-09T03:32:02.175Z,5.37
2023-05-09T03:34:30.540Z,5.20
2023-05-09T03:36:59.189Z,5.30
2023-05-09T03:39:28.918Z,5.23
2023-05-09T03:41:57.337Z,5.33
2023-05-09T03:44:25.723Z,4.90
2023-05-09T03:46:56.263Z,5.20
2023-05-09T03:49:24.609Z,5.10
2023-05-09T03:51:53.112Z,5.70
2023-05-09T03:54:24.277Z,4.60
2023-05-09T03:56:54.015Z,5.07
2023-05-09T03:59:22.352Z,5.30
2023-05-09T04:01:50.903Z,5.07
2023-05-09T04:04:19.362Z,4.50
2023-05-09T04:06:48.504Z,4.83
2023-05-09T04:09:16.845Z,4.70
2023-05-09T04:11:45.274Z,4.67
2023-05-09T04:14:15.174Z,5.90
2023-05-09T04:16:44.007Z,5.10
2023-05-09T04:19:12.386Z,5.37
2023-05-09T04:21:40.772Z,4.87
2023-05-09T04:24:11.677Z,4.97
2023-05-09T04:26:40.091Z,4.70
2023-05-09T04:29:08.385Z,4.73
2023-05-09T04:31:38.197Z,4.33
2023-05-09T04:34:09.508Z,5.07
2023-05-09T04:36:41.087Z,4.50
2023-05-09T04:39:10.499Z,4.90
2023-05-09T04:41:40.558Z,4.53
2023-05-09T04:44:09.054Z,4.07
2023-05-09T04:46:38.945Z,4.50
2023-05-09T04:49:10.098Z,4.53
2023-05-09T04:51:38.407Z,4.20
2023-05-09T04:54:06.817Z,4.43
2023-05-09T04:56:35.142Z,4.83
2023-05-09T04:59:03.731Z,4.47
2023-05-09T05:01:32.040Z,4.70
2023-05-09T05:04:02.129Z,4.43
2023-05-09T05:06:31.843Z,4.70
2023-05-09T05:09:00.209Z,4.77
2023-05-09T05:11:28.573Z,4.93
2023-05-09T05:13:56.917Z,4.37
2023-05-09T05:16:25.385Z,4.70
2023-05-09T05:18:53.705Z,5.13
2023-05-09T05:21:23.457Z,5.20
2023-05-09T05:23:51.760Z,4.93
2023-05-09T05:26:20.163Z,4.77
2023-05-09T05:28:48.501Z,4.50
2023-05-09T05:31:16.827Z,5.20
2023-05-09T05:33:45.167Z,5.07
2023-05-09T05:36:13.611Z,4.83
2023-05-09T05:38:43.311Z,5.13
2023-05-09T05:41:15.686Z,5.63
2023-05-09T05:43:44.104Z,5.33
2023-05-09T05:46:12.496Z,5.13
2023-05-09T05:48:40.931Z,5.20
2023-05-09T05:51:09.366Z,5.40
2023-05-09T05:53:37.673Z,5.60
2023-05-09T05:56:08.152Z,5.43
2023-05-09T05:58:36.525Z,4.93
2023-05-09T06:01:05.171Z,5.03
2023-05-09T06:03:33.759Z,5.10
2023-05-09T06:06:02.602Z,4.57
2023-05-09T06:08:31.039Z,5.33
2023-05-09T06:10:59.453Z,5.33
2023-05-09T06:13:29.471Z,5.10
2023-05-09T06:16:07.777Z,4.40
2023-05-09T06:18:44.141Z,5.17
2023-05-09T06:21:12.532Z,4.87
2023-05-09T06:23:51.028Z,4.70
2023-05-09T06:26:27.043Z,4.60
2023-05-09T06:28:57.281Z,5.43
2023-05-09T06:31:25.901Z,4.63
2023-05-09T06:33:54.535Z,5.03
2023-05-09T06:36:23.054Z,4.53
2023-05-09T06:38:51.382Z,4.40
2023-05-09T06:41:19.809Z,4.43
2023-05-09T06:43:49.873Z,4.70
2023-05-09T06:46:19.810Z,4.93
2023-05-09T06:48:48.174Z,4.53
2023-05-09T06:51:16.574Z,4.93
2023-05-09T06:53:44.995Z,5.00
2023-05-09T06:56:13.965Z,5.07
2023-05-09T06:58:42.462Z,4.43
2023-05-09T07:01:10.783Z,5.80
2023-05-09T07:03:40.781Z,4.73
2023-05-09T07:06:09.453Z,4.37
2023-05-09T07:08:37.825Z,4.43
2023-05-09T07:11:06.682Z,4.70
2023-05-09T07:13:35.160Z,5.27
2023-05-09T07:16:04.121Z,5.60
2023-05-09T07:18:32.518Z,5.40
2023-05-09T07:21:02.835Z,5.40
2023-05-09T07:23:31.170Z,4.97
2023-05-09T07:25:59.932Z,5.87
2023-05-09T07:28:28.376Z,4.67
2023-05-09T07:30:57.670Z,5.10
2023-05-09T07:33:26.291Z,4.90
2023-05-09T07:35:54.684Z,5.40
2023-05-09T07:38:24.568Z,5.73
2023-05-09T07:40:53.333Z,5.00
2023-05-09T07:43:21.714Z,5.40
2023-05-09T07:45:50.128Z,5.63
2023-05-09T07:48:21.477Z,5.70
2023-05-09T07:50:49.940Z,5.40
2023-05-09T07:53:18.324Z,4.90
2023-05-09T07:55:50.297Z,5.87
2023-05-09T07:58:18.660Z,5.27
2023-05-09T08:00:47.075Z,5.33
2023-05-09T08:03:15.799Z,5.40
2023-05-09T08:05:44.316Z,5.60
2023-05-09T08:08:12.639Z,5.63
2023-05-09T08:10:40.943Z,4.93
2023-05-09T08:13:10.622Z,5.50
2023-05-09T08:15:38.995Z,6.00
2023-05-09T08:18:07.529Z,5.70
2023-05-09T08:20:36.274Z,4.93
2023-05-09T08:23:04.669Z,6.00
2023-05-09T08:25:33.358Z,6.37
2023-05-09T08:28:01.723Z,5.77
2023-05-09T08:30:31.484Z,5.90
2023-05-09T08:32:59.826Z,6.23
2023-05-09T08:35:28.124Z,6.30
2023-05-09T08:37:56.462Z,6.60
2023-05-09T08:40:24.955Z,6.40
2023-05-09T08:42:53.951Z,6.47
2023-05-09T08:45:31.880Z,5.80
2023-05-09T08:48:01.060Z,6.07
2023-05-09T08:50:30.318Z,6.27
2023-05-09T08:52:58.798Z,6.13
2023-05-09T08:55:27.710Z,7.20
2023-05-09T08:57:56.197Z,5.97
2023-05-09T09:00:25.769Z,5.90
2023-05-09T09:02:56.449Z,6.40
2023-05-09T09:05:40.808Z,6.30
2023-05-09T09:08:11.969Z,6.33
2023-05-09T09:10:43.463Z,6.33
2023-05-09T09:13:14.108Z,6.37
2023-05-09T09:15:45.218Z,6.37
2023-05-09T09:18:31.369Z,6.70
2023-05-09T09:21:06.229Z,7.00
2023-05-09T09:23:34.803Z,6.27
2023-05-09T09:26:04.956Z,7.27
2023-05-09T09:28:33.457Z,7.40
2023-05-09T09:31:01.956Z,6.97
2023-05-09T09:33:31.768Z,7.00
2023-05-09T09:36:00.230Z,6.87
2023-05-09T09:38:28.519Z,7.13
2023-05-09T09:40:58.841Z,6.73
2023-05-09T09:43:30.952Z,7.00
2023-05-09T09:46:02.453Z,7.77
2023-05-09T09:48:35.035Z,7.40
2023-05-09T09:51:10.228Z,8.23
2023-05-09T09:53:41.823Z,7.03
2023-05-09T09:56:10.688Z,7.73
2023-05-09T09:58:39.010Z,6.67
2023-05-09T10:01:08.220Z,7.70
2023-05-09T10:03:39.832Z,7.27
2023-05-09T10:06:12.689Z,7.60
2023-05-09T10:08:41.658Z,7.07
2023-05-09T10:11:11.293Z,7.37
2023-05-09T10:13:39.993Z,6.43
2023-05-09T10:16:10.924Z,7.80
2023-05-09T10:18:43.491Z,7.10
2023-05-09T10:21:16.076Z,7.77
2023-05-09T10:23:49.895Z,6.90
2023-05-09T10:26:27.320Z,7.10
2023-05-09T10:28:58.637Z,6.77
2023-05-09T10:31:31.474Z,7.60
2023-05-09T10:34:05.760Z,7.73
2023-05-09T10:36:34.524Z,7.47
2023-05-09T10:39:03.385Z,7.50
2023-05-09T10:41:32.727Z,7.40
2023-05-09T10:44:01.745Z,7.40
2023-05-09T10:46:30.496Z,7.40
2023-05-09T10:49:01.338Z,6.93
2023-05-09T10:51:29.886Z,6.83
2023-05-09T10:53:58.222Z,7.37
2023-05-09T10:56:30.688Z,7.30
2023-05-09T10:58:59.335Z,7.10
2023-05-09T11:01:35.047Z,7.43
2023-05-09T11:04:12.724Z,7.37
2023-05-09T11:06:51.127Z,7.67
2023-05-09T11:09:33.116Z,6.90
2023-05-09T11:12:13.469Z,8.17
2023-05-09T11:14:44.578Z,7.10
2023-05-09T11:17:14.843Z,7.67
2023-05-09T11:20:06.557Z,7.40
2023-05-09T11:22:42.333Z,6.57
2023-05-09T11:25:13.150Z,6.63
2023-05-09T11:27:48.127Z,5.93
2023-05-09T11:30:18.799Z,6.83
2023-05-09T11:32:51.532Z,7.37
2023-05-09T11:35:26.660Z,6.20
2023-05-09T11:38:03.020Z,6.63
2023-05-09T11:40:32.525Z,6.30
2023-05-09T11:43:02.315Z,6.93
2023-05-09T11:45:32.904Z,6.77
2023-05-09T11:48:02.146Z,7.67
2023-05-09T11:50:32.164Z,7.17
2023-05-09T11:53:00.469Z,5.93
2023-05-09T11:55:30.220Z,7.20
2023-05-09T11:57:59.897Z,6.43
2023-05-09T12:00:28.620Z,6.83
2023-05-09T12:02:57.121Z,6.60
2023-05-09T12:05:25.523Z,5.83
2023-05-09T12:07:55.233Z,5.50
2023-05-09T12:10:24.629Z,5.70
2023-05-09T12:12:55.693Z,4.93
2023-05-09T12:15:24.752Z,4.73
2023-05-09T12:18:04.104Z,5.17
2023-05-09T12:20:43.152Z,5.77
2023-05-09T12:23:14.378Z,6.30
2023-05-09T12:25:49.890Z,5.67
2023-05-09T12:28:18.917Z,6.13
2023-05-09T12:30:47.469Z,4.63
2023-05-09T12:33:16.347Z,5.40
2023-05-09T12:35:48.355Z,4.73
2023-05-09T12:38:23.274Z,6.40
2023-05-09T12:41:03.480Z,6.93
2023-05-09T12:43:33.905Z,6.13
2023-05-09T12:46:03.907Z,5.90
2023-05-09T12:48:38.256Z,6.50
2023-05-09T12:51:07.220Z,5.10
2023-05-09T12:53:40.399Z,4.17
2023-05-09T12:56:15.913Z,4.37
2023-05-09T12:58:51.116Z,4.87
2023-05-09T13:01:19.995Z,4.90
2023-05-09T13:03:53.523Z,5.33
2023-05-09T13:06:24.148Z,5.10
2023-05-09T13:09:15.514Z,5.60
2023-05-09T13:11:43.847Z,5.30
2023-05-09T13:14:12.388Z,3.73
2023-05-09T13:16:41.141Z,3.57
2023-05-09T13:19:09.811Z,4.00
2023-05-09T13:21:38.356Z,4.70
2023-05-09T13:24:07.757Z,4.40
2023-05-09T13:26:37.446Z,4.90
2023-05-09T13:29:05.881Z,5.87
2023-05-09T13:31:34.359Z,5.20
2023-05-09T13:34:02.598Z,5.63
2023-05-09T13:36:32.573Z,6.20
2023-05-09T13:39:00.882Z,5.43
2023-05-09T13:41:31.836Z,4.53
2023-05-09T13:44:01.548Z,4.57
2023-05-09T13:46:29.948Z,5.53
2023-05-09T13:48:58.348Z,5.17
2023-05-09T13:51:27.297Z,5.57
2023-05-09T13:53:55.675Z,5.13
2023-05-09T13:56:23.988Z,5.13
2023-05-09T13:58:52.337Z,4.37
2023-05-09T14:01:25.146Z,4.03
2023-05-09T14:03:54.159Z,4.20
2023-05-09T14:06:22.565Z,3.60
2023-05-09T14:08:50.955Z,3.50
2023-05-09T14:11:19.254Z,3.87
2023-05-09T14:13:47.589Z,4.60
2023-05-09T14:16:16.006Z,3.87
2023-05-09T14:18:45.793Z,3.97
2023-05-09T14:21:14.248Z,4.37
2023-05-09T14:23:43.562Z,4.00
2023-05-09T14:26:11.909Z,3.73
2023-05-09T14:28:40.202Z,3.30
2023-05-09T14:31:08.548Z,3.97
2023-05-09T14:33:36.902Z,3.20
2023-05-09T14:36:07.550Z,3.73
2023-05-09T14:38:36.894Z,3.97
2023-05-09T14:41:06.990Z,3.90
2023-05-09T14:43:35.294Z,3.23
2023-05-09T14:46:03.745Z,3.53
2023-05-09T14:48:32.216Z,3.10
2023-05-09T14:51:00.718Z,2.97
2023-05-09T14:53:30.792Z,3.43
2023-05-09T14:55:59.181Z,3.40
2023-05-09T14:58:30.914Z,3.63
2023-05-09T15:00:59.334Z,3.00
2023-05-09T15:03:30.838Z,3.90
2023-05-09T15:05:59.644Z,3.30
2023-05-09T15:08:29.320Z,4.07
2023-05-09T15:10:57.853Z,4.53
2023-05-09T15:13:26.304Z,4.63
2023-05-09T15:15:54.763Z,5.20
2023-05-09T15:18:28.621Z,4.27
2023-05-09T15:20:57.028Z,3.93
2023-05-09T15:23:25.364Z,3.90
2023-05-09T15:26:01.336Z,3.60
2023-05-09T15:28:29.718Z,3.50
2023-05-09T15:30:59.944Z,3.37
2023-05-09T15:33:28.558Z,3.53
2023-05-09T15:36:00.096Z,3.03
2023-05-09T15:38:31.399Z,2.97
2023-05-09T15:41:01.127Z,2.77
2023-05-09T15:43:29.452Z,3.53
2023-05-09T15:45:59.994Z,5.97
2023-05-09T15:48:28.790Z,3.30
2023-05-09T15:50:57.088Z,3.00
2023-05-09T15:53:27.570Z,3.90
2023-05-09T15:55:56.884Z,3.10
2023-05-09T15:58:27.016Z,3.03
2023-05-09T16:00:55.908Z,2.73
2023-05-09T16:03:25.036Z,2.53
2023-05-09T16:05:59.190Z,2.57
2023-05-09T16:08:27.625Z,2.60
2023-05-09T16:10:56.021Z,2.90
2023-05-09T16:13:24.466Z,3.10
2023-05-09T16:15:54.477Z,2.90
2023-05-09T16:18:22.829Z,3.27
2023-05-09T16:20:51.206Z,3.67
2023-05-09T16:23:21.108Z,3.67
2023-05-09T16:25:50.677Z,2.73
2023-05-09T16:28:23.478Z,2.60
2023-05-09T16:30:53.840Z,2.57
2023-05-09T16:33:22.186Z,3.07
2023-05-09T16:35:50.525Z,2.93
2023-05-09T16:38:19.020Z,2.73
2023-05-09T16:40:47.381Z,3.00
2023-05-09T16:43:16.439Z,3.17
2023-05-09T16:45:46.706Z,3.23
2023-05-09T16:48:18.720Z,3.50
2023-05-09T16:50:48.031Z,3.40
2023-05-09T16:53:18.900Z,2.93
2023-05-09T16:55:49.846Z,3.00
2023-05-09T16:58:18.486Z,3.40
2023-05-09T17:00:46.934Z,3.50
2023-05-09T17:03:16.758Z,3.47
2023-05-09T17:05:45.120Z,3.80
2023-05-09T17:08:13.525Z,3.07
2023-05-09T17:10:42.286Z,3.20
2023-05-09T17:13:11.093Z,3.50
2023-05-09T17:15:39.475Z,3.50
2023-05-09T17:18:07.918Z,3.20
2023-05-09T17:20:37.736Z,3.30
2023-05-09T17:23:06.148Z,3.30
2023-05-09T17:25:34.570Z,3.00
2023-05-09T17:28:03.321Z,3.57
2023-05-09T17:30:32.068Z,3.13
2023-05-09T17:33:00.596Z,3.20
2023-05-09T17:35:30.401Z,3.50
2023-05-09T17:38:00.270Z,2.80
2023-05-09T17:40:28.879Z,2.87
2023-05-09T17:42:57.273Z,2.80
2023-05-09T17:45:25.618Z,3.10
2023-05-09T17:47:54.129Z,3.53
2023-05-09T17:50:22.890Z,3.23
2023-05-09T17:52:51.622Z,3.00
2023-05-09T17:55:24.978Z,3.40
2023-05-09T17:57:53.681Z,3.00
2023-05-09T18:00:22.588Z,2.93
2023-05-09T18:02:51.711Z,3.40
2023-05-09T18:05:20.771Z,3.30
2023-05-09T18:07:49.614Z,3.00
2023-05-09T18:10:18.237Z,3.23
2023-05-09T18:12:48.345Z,3.77
2023-05-09T18:15:16.816Z,4.00
2023-05-09T18:17:48.426Z,3.70
2023-05-09T18:20:17.121Z,3.87
2023-05-09T18:22:45.833Z,3.57
2023-05-09T18:25:14.356Z,3.90
2023-05-09T18:27:42.698Z,3.40
2023-05-09T18:30:13.812Z,3.80
2023-05-09T18:32:42.574Z,3.90
2023-05-09T18:35:11.185Z,3.60
2023-05-09T18:37:42.487Z,3.70
2023-05-09T18:40:15.345Z,3.90
2023-05-09T18:42:44.314Z,3.33
2023-05-09T18:45:15.918Z,3.40
2023-05-09T18:47:44.477Z,3.30
2023-05-09T18:50:14.709Z,3.60
2023-05-09T18:52:44.524Z,3.70
2023-05-09T18:55:13.156Z,3.40
2023-05-09T18:57:41.645Z,3.30
2023-05-09T19:00:12.476Z,3.57
2023-05-09T19:02:45.074Z,3.13
2023-05-09T19:05:13.464Z,3.63
2023-05-09T19:07:41.885Z,3.40
2023-05-09T19:10:11.624Z,3.67
2023-05-09T19:12:40.114Z,3.47
2023-05-09T19:15:10.436Z,3.30
2023-05-09T19:17:42.127Z,3.70
2023-05-09T19:20:14.256Z,3.20
2023-05-09T19:22:46.316Z,3.47
2023-05-09T19:25:14.705Z,3.67
2023-05-09T19:27:43.181Z,3.40
2023-05-09T19:30:15.336Z,3.67
2023-05-09T19:32:44.127Z,3.20
2023-05-09T19:35:13.998Z,3.83
2023-05-09T19:37:42.545Z,3.63
2023-05-09T19:40:11.949Z,3.97
2023-05-09T19:42:41.950Z,3.47
2023-05-09T19:45:11.690Z,3.60
2023-05-09T19:47:40.148Z,3.53
2023-05-09T19:50:09.925Z,3.70
2023-05-09T19:52:39.794Z,3.60
2023-05-09T19:55:09.385Z,3.57
2023-05-09T19:57:37.982Z,3.67
2023-05-09T20:00:08.096Z,3.60
2023-05-09T20:02:36.549Z,3.90
2023-05-09T20:05:05.338Z,3.57
2023-05-09T20:07:33.674Z,3.20
2023-05-09T20:10:03.401Z,3.53
2023-05-09T20:12:31.980Z,4.00
2023-05-09T20:15:03.397Z,3.43
2023-05-09T20:17:31.808Z,3.90
2023-05-09T20:20:00.147Z,3.80
2023-05-09T20:22:28.640Z,3.50
2023-05-09T20:24:59.942Z,3.30
2023-05-09T20:27:29.645Z,3.53
2023-05-09T20:29:57.961Z,3.30
2023-05-09T20:32:26.727Z,3.40
2023-05-09T20:35:00.064Z,4.17
2023-05-09T20:37:28.348Z,3.60
2023-05-09T20:39:56.795Z,3.23
2023-05-09T20:42:25.740Z,3.57
2023-05-09T20:45:01.021Z,4.17
2023-05-09T20:47:29.373Z,3.10
2023-05-09T20:49:58.482Z,3.73
2023-05-09T20:52:27.025Z,2.87
2023-05-09T20:54:59.210Z,3.60
2023-05-09T20:57:27.566Z,3.70
2023-05-09T20:59:57.239Z,3.60
2023-05-09T21:02:25.749Z,3.13
2023-05-09T21:04:56.744Z,3.30
2023-05-09T21:07:25.046Z,3.20
2023-05-09T21:09:54.154Z,4.20
2023-05-09T21:12:22.485Z,3.83
2023-05-09T21:14:51.097Z,3.90
2023-05-09T21:17:21.120Z,3.60
2023-05-09T21:19:51.585Z,3.90
2023-05-09T21:22:20.054Z,4.20
2023-05-09T21:24:48.354Z,3.70
2023-05-09T21:27:16.680Z,4.03
2023-05-09T21:29:49.069Z,4.33
2023-05-09T21:32:17.735Z,3.57
2023-05-09T21:34:54.722Z,3.70
2023-05-09T21:37:22.808Z,3.83
2023-05-09T21:39:51.119Z,3.70
2023-05-09T21:42:19.444Z,3.63
2023-05-09T21:44:47.743Z,3.87
2023-05-09T21:47:18.660Z,3.57
2023-05-09T21:49:48.424Z,3.63
2023-05-09T21:52:18.388Z,3.93
2023-05-09T21:54:46.796Z,3.67
2023-05-09T21:57:18.151Z,3.87
2023-05-09T21:59:46.450Z,3.40
2023-05-09T22:02:14.920Z,3.60
2023-05-09T22:04:46.064Z,3.60
2023-05-09T22:07:15.722Z,3.87
2023-05-09T22:09:44.087Z,3.57
2023-05-09T22:12:12.464Z,3.57
2023-05-09T22:14:52.689Z,3.90
2023-05-09T22:17:29.104Z,4.07
2023-05-09T22:19:57.414Z,3.50
2023-05-09T22:22:27.999Z,3.70
2023-05-09T22:24:56.317Z,3.83
2023-05-09T22:27:24.659Z,3.20
2023-05-09T22:29:53.026Z,3.83
2023-05-09T22:32:21.305Z,3.53
2023-05-09T22:34:54.375Z,3.57
2023-05-09T22:37:22.729Z,3.87
2023-05-09T22:39:52.408Z,3.23
2023-05-09T22:42:20.703Z,4.07
2023-05-09T22:44:54.649Z,3.93
2023-05-09T22:47:22.968Z,3.90
2023-05-09T22:49:51.948Z,3.87
2023-05-09T22:52:20.655Z,4.43
2023-05-09T22:54:48.930Z,4.37
2023-05-09T22:57:23.216Z,4.03
2023-05-09T22:59:51.622Z,4.53
2023-05-09T23:02:19.958Z,4.63
2023-05-09T23:04:48.270Z,4.40
2023-05-09T23:07:16.622Z,3.93
2023-05-09T23:09:44.946Z,4.50
2023-05-09T23:12:13.280Z,4.53
2023-05-09T23:14:42.937Z,4.70
2023-05-09T23:17:11.338Z,4.20
2023-05-09T23:19:42.572Z,3.83
2023-05-09T23:22:11.451Z,4.50
2023-05-09T23:24:39.757Z,4.20
2023-05-09T23:27:08.038Z,4.03
2023-05-09T23:29:36.301Z,4.63
2023-05-09T23:32:06.454Z,3.80
2023-05-09T23:34:36.234Z,4.33
2023-05-09T23:37:04.764Z,4.00
2023-05-09T23:39:33.127Z,4.10
2023-05-09T23:42:01.477Z,4.70
2023-05-09T23:44:30.146Z,4.03
2023-05-09T23:47:01.907Z,4.70
2023-05-09T23:49:31.800Z,4.20
2023-05-09T23:52:00.136Z,4.23
2023-05-09T23:54:28.676Z,3.93
2023-05-09T23:56:58.072Z,4.70
2023-05-09T23:59:26.390Z,4.10
